Terminal Aerodrome Forecast
Issued by NWS Newport/Morehead City, NC

Home | Current Version | Previous Version | Text Only | Print | Product List | Glossary Off
Versions: 1 2 3 4 5 6 7 8 9 10 11 12 13 14 15 16 17 18 19 20

000
FTUS42 KMHX 251720
TAFEWN
TAF
KEWN 251720Z 2518/2618 18005KT P6SM VCTS BKN050CB BKN120
     FM260700 00000KT 3SM BR SCT007
     FM261200 03005KT P6SM FEW250=

USA.gov is the U.S. government's official web portal to all federal, state and local government web resources and services.